Flight Track Log - Related Links

Times and Time Zones

All times are in EDT time to prevent confusion due to time zone crossing. See the ACA33 flight status page for this flight to view local times or setup timezone preferences in your user account.


Time Position Orientation Groundspeed Altitude Reporting Facility
EDT Latitude Longitude Course Direction KTS MPH feet Rate Location/Type
Sat 08:20:38 PM 43.6793 -79.5969 47° Northeast 174 200 800  Level FlightAware ADS-B (CYYZ)
Sat 08:20:51 PM 43.6860 -79.5855 53° Northeast 175 201 1,500 3,000 Climbing FlightAware ADS-B
Sat 08:20:54 PM 43.6872 -79.5834 53° Northeast 176 203 1,600 2,667 Climbing FlightAware ADS-B (CYYZ)
Sat 08:21:09 PM 43.6944 -79.5699 54° Northeast 178 205 2,300 2,667 Climbing FlightAware ADS-B (CYYZ)
Sat 08:21:12 PM 43.6956 -79.5675 55° Northeast 180 207 2,400 3,200 Climbing FlightAware ADS-B
Sat 08:21:24 PM 43.7014 -79.5560 54° Northeast 179 206 3,100 3,333 Climbing FlightAware ADS-B (CYYZ)
Sat 08:21:39 PM 43.7086 -79.5418 55° Northeast 177 204 3,900 3,000 Climbing FlightAware ADS-B (CYYZ)
Sat 08:21:44 PM 43.7076 -79.5437 54° Northeast 182 209 4,100 2,400 Climbing FlightAware ADS-B
Sat 08:21:54 PM 43.7163 -79.5273 52° Northeast 193 222 4,500 2,100 Climbing FlightAware ADS-B (CYYZ)
Sat 08:22:04 PM 43.7220 -79.5175 48° Northeast 207 238 4,800 2,000 Climbing FlightAware ADS-B
Sat 08:22:09 PM 43.7257 -79.5128 39° Northeast 209 241 5,000 2,667 Climbing FlightAware ADS-B (CYYZ)
Sat 08:22:13 PM 43.7300 -79.5090 29° Northeast 210 242 5,200 2,400 Climbing FlightAware ADS-B (CYYZ)
Sat 08:22:19 PM 43.7343 -79.5064 18° North 215 247 5,400 1,636 Climbing FlightAware ADS-B (CYYZ)
Sat 08:22:24 PM 43.7394 -79.5049 North 219 252 5,500 1,200 Climbing FlightAware ADS-B (CYYZ)
Sat 08:22:29 PM 43.7444 -79.5048 357° North 227 261 5,600 1,200 Climbing FlightAware ADS-B (CYYZ)
Sat 08:22:34 PM 43.7499 -79.5059 349° North 235 270 5,700 1,200 Climbing FlightAware ADS-B (CYYZ)
Sat 08:22:39 PM 43.7552 -79.5082 340° North 241 277 5,800 2,000 Climbing FlightAware ADS-B (CYYZ)
Sat 08:22:43 PM 43.7603 -79.5116 334° Northwest 245 282 6,000 1,800 Climbing FlightAware ADS-B (CYYZ)
Sat 08:22:49 PM 43.7652 -79.5163 322° Northwest 247 284 6,100 1,200 Climbing FlightAware ADS-B (CYYZ)
Sat 08:22:53 PM 43.7690 -79.5213 313° West 248 285 6,200 857 Climbing FlightAware ADS-B (CYYZ)
Sat 08:22:56 PM 43.7703 -79.5235 309° West 250 288 6,200 1,000 Level FlightAware ADS-B
Sat 08:22:59 PM 43.7726 -79.5279 304° West 251 289 6,300 1,500 Climbing FlightAware ADS-B (CYYZ)
Sat 08:23:04 PM 43.7754 -79.5351 296° West 254 292 6,400 1,800 Climbing FlightAware ADS-B (CYYZ)
Sat 08:23:09 PM 43.7772 -79.5426 286° West 260 299 6,600 3,000 Climbing FlightAware ADS-B (CYYZ)
Sat 08:23:14 PM 43.7785 -79.5511 280° West 264 304 6,900 3,429 Climbing FlightAware ADS-B (CYYZ)
Sat 08:23:16 PM 43.7787 -79.5528 279° West 265 305 7,000 4,400 Climbing FlightAware ADS-B
Sat 08:23:29 PM 43.7808 -79.5761 277° West 260 299 8,000 4,737 Climbing FlightAware ADS-B (CYYZ)
Sat 08:23:35 PM 43.7816 -79.5867 276° West 257 296 8,500 4,400 Climbing FlightAware ADS-B
Sat 08:23:44 PM 43.7827 -79.6007 277° West 256 295 9,100 3,750 Climbing FlightAware ADS-B (CYYZ)
Sat 08:23:59 PM 43.7847 -79.6253 277° West 260 299 10,000 3,500 Climbing FlightAware ADS-B (CYYZ)
Sat 08:24:08 PM 43.7860 -79.6400 277° West 265 305 10,500 2,800 Climbing FlightAware ADS-B
Sat 08:24:29 PM 43.7896 -79.6771 278° West 286 329 11,400 2,100 Climbing FlightAware ADS-B (CYYZ)
Sat 08:24:48 PM 43.7928 -79.7144 276° West 315 362 11,900 1,615 Climbing FlightAware ADS-B
Sat 08:24:55 PM 43.7939 -79.7284 276° West 327 376 12,100 3,484 Climbing FlightAware ADS-B (CYYZ)
Sat 08:25:19 PM 43.7985 -79.7793 280° West 331 381 13,700 4,000 Climbing FlightAware ADS-B
Sat 08:25:40 PM 43.8080 -79.8212 293° West 333 383 15,100 3,667 Climbing FlightAware ADS-B
Sat 08:26:31 PM 43.8413 -79.9243 293° West 350 403 18,100 3,587 Climbing FlightAware ADS-B
Sat 08:27:12 PM 43.8671 -80.0073 299° West 348 400 20,600 3,836 Climbing FlightAware ADS-B
Sat 08:27:32 PM 43.8836 -80.0390 310° West 342 394 22,000 3,765 Climbing FlightAware ADS-B
Sat 08:28:03 PM 43.9177 -80.0961 309° West 342 394 23,800 3,000 Climbing FlightAware ADS-B
Sat 08:28:56 PM 43.9729 -80.1834 313° West 354 407 26,200 2,600 Climbing FlightAware ADS-B
Sat 08:29:33 PM 44.0112 -80.2431 311° West 364 419 27,700 2,417 Climbing FlightAware ADS-B
Sat 08:30:08 PM 44.0532 -80.3095 311° West 372 428 29,100 1,680 Climbing FlightAware ADS-B
Sat 08:30:48 PM 44.1002 -80.3840 311° West 399 459 29,800 1,200 Climbing FlightAware ADS-B
Sat 08:31:03 PM 44.1194 -80.4144 312° West 406 467 30,200 1,714 Climbing FlightAware ADS-B (CYYZ)
Sat 08:31:23 PM 44.1410 -80.4487 311° West 411 473 30,800 1,935 Climbing FlightAware ADS-B
Sat 08:31:34 PM 44.1562 -80.4729 312° West 411 473 31,200 3,000 Climbing FlightAware ADS-B (CYYZ)
Sat 08:32:03 PM 44.1941 -80.5332 312° West 400 460 32,800 3,200 Climbing FlightAware ADS-B (CYYZ)
Sat 08:32:04 PM 44.1892 -80.5255 311° West 400 460 32,800 2,129 Level FlightAware ADS-B
Sat 08:32:34 PM 44.2306 -80.5915 312° West 399 459 33,900 2,323 Climbing FlightAware ADS-B (CYYZ)
Sat 08:32:35 PM 44.2325 -80.5946 311° West 399 459 34,000 1,600 Climbing FlightAware ADS-B
Sat 08:33:04 PM 44.2666 -80.6492 311° West 403 464 34,700 1,263 Climbing FlightAware ADS-B (CYYZ)
Sat 08:33:13 PM 44.2776 -80.6669 311° West 408 470 34,800 1,000 Climbing FlightAware ADS-B
Sat 08:33:34 PM 44.3041 -80.7093 311° West 414 476 35,200 1,029 Climbing FlightAware ADS-B (CYYZ)
Sat 08:33:48 PM 44.3109 -80.7202 311° West 418 481 35,400 1,000 Climbing FlightAware ADS-B
Sat 08:34:04 PM 44.3405 -80.7677 311° West 423 487 35,700 1,000 Climbing FlightAware ADS-B (CYYZ)
Sat 08:34:24 PM 44.3678 -80.8116 311° West 430 495 36,000 367 Climbing FlightAware ADS-B
Sat 08:34:53 PM 44.4073 -80.8753 311° West 433 498 36,000  Level FlightAware ADS-B (CYYZ)
Sat 08:35:00 PM 44.4081 -80.8766 311° West 433 498 36,000  Level FlightAware ADS-B
Sat 08:35:23 PM 44.4445 -80.9355 311° West 433 498 36,000  Level FlightAware ADS-B (CYYZ)
Sat 08:35:30 PM 44.4547 -80.9520 311° West 434 499 36,000  Level FlightAware ADS-B
Sat 08:35:53 PM 44.4835 -80.9987 311° West 433 498 36,000  Level FlightAware ADS-B (CYYZ)
Sat 08:36:06 PM 44.5005 -81.0263 311° West 433 498 36,000  Level FlightAware ADS-B
Sat 08:36:23 PM 44.5240 -81.0644 311° West 432 497 36,000  Level FlightAware ADS-B (CYYZ)
Sat 08:36:54 PM 44.5638 -81.1292 311° West 431 496 36,000  Level FlightAware ADS-B (CYYZ)
Sat 08:37:24 PM 44.6031 -81.1933 311° West 431 496 36,000  Level FlightAware ADS-B (CYYZ)
Sat 08:37:32 PM 44.6119 -81.2077 311° West 432 497 36,000  Level FlightAware ADS-B
Sat 08:37:53 PM 44.6401 -81.2540 311° West 430 495 36,000  Level FlightAware ADS-B (CYYZ)
Sat 08:38:23 PM 44.6794 -81.3184 311° West 430 495 36,000  Level FlightAware ADS-B (CYYZ)
Sat 08:38:33 PM 44.6931 -81.3408 311° West 431 496 36,000  Level FlightAware ADS-B
Sat 08:38:54 PM 44.7185 -81.3824 311° West 431 496 36,000  Level FlightAware ADS-B (CYYZ)
Sat 08:39:06 PM 44.7309 -81.4028 311° West 431 496 36,000  Level FlightAware ADS-B
Sat 08:39:24 PM 44.7586 -81.4484 311° West 430 495 36,000  Level FlightAware ADS-B (CYYZ)
Sat 08:39:54 PM 44.7967 -81.5115 311° West 427 491 36,000  Level FlightAware ADS-B (CYYZ)
Sat 08:40:22 PM 44.8333 -81.5718 311° West 426 490 36,000  Level FlightAware ADS-B (CYYZ)
Sat 08:40:32 PM 44.8453 -81.5916 310° West 426 490 36,000  Level FlightAware ADS-B
Sat 08:40:53 PM 44.8652 -81.6247 311° West 427 491 36,000  Level FlightAware ADS-B (CYYZ)
Sat 08:41:13 PM 44.8989 -81.6807 311° West 427 491 36,000  Level FlightAware ADS-B (CYYZ)
Sat 08:42:13 PM 44.9620 -81.7858 311° West 427 491 36,000  Level FlightAware ADS-B (CYYZ)
Sat 08:42:52 PM 45.0205 -81.8834 311° West 426 490 36,000  Level FlightAware ADS-B (CYYZ)
Sat 08:43:20 PM 45.0599 -81.9492 311° West 425 489 36,000  Level FlightAware ADS-B (CYYZ)
Sat 08:46:53 PM 45.3268 -82.4007 311° West 425 489 36,000  Level FlightAware ADS-B (CYYZ)
Sat 08:47:22 PM 45.3609 -82.4589 310° West 421 484 36,000  Level FlightAware ADS-B (CYYZ)
Sat 08:47:54 PM 45.4011 -82.5277 310° West 421 484 36,000  Level FlightAware ADS-B (CYYZ)
Sat 08:48:23 PM 45.4365 -82.5884 310° West 420 483 36,000  Level FlightAware ADS-B (CYYZ)
Sat 08:48:54 PM 45.4747 -82.6538 310° West 418 481 36,000  Level FlightAware ADS-B (CYYZ)
Sat 08:49:06 PM 45.4904 -82.6808 310° West 416 479 36,000  Level FlightAware ADS-B (CYYZ)
Sat 08:50:48 PM 45.6113 -82.8898 310° West 416 479 36,000  Level FlightAware ADS-B (CYYZ)
Sat 08:51:18 PM 45.6437 -82.9461 310° West 400 460 36,000  Level FlightAware ADS-B (CYYZ)
Sat 08:51:59 PM 45.6833 -83.0167 310° West 400 460 36,000  Level Toronto Center
Sat 08:52:59 PM 45.7500 -83.1500 306° West 400 460 36,000  Level Toronto Center
Sat 08:53:59 PM 45.8333 -83.2667 316° Northwest 390 449 36,000  Level Toronto Center
Sat 08:54:59 PM 45.8833 -83.4000 298° West 390 449 36,000  Level Toronto Center
Sat 08:55:59 PM 45.9500 -83.5167 309° West 400 460 36,000  Level Toronto Center
Sat 08:56:59 PM 46.0333 -83.6500 312° West 400 460 36,000  Level Toronto Center
Sat 08:57:59 PM 46.1000 -83.7667 310° West 400 460 36,000  Level Toronto Center
Sat 08:58:59 PM 46.1500 -83.8667 306° West 400 460 36,000  Level Toronto Center
Sat 08:59:59 PM 46.2333 -84.0167 309° West 400 460 36,000  Level Toronto Center
Sat 09:00:59 PM 46.3000 -84.1167 314° West 400 460 36,000  Level Toronto Center
Sat 09:01:59 PM 46.3500 -84.2500 299° West 400 460 36,000  Level Toronto Center
Sat 09:02:59 PM 46.4333 -84.4000 309° West 410 472 36,000  Level Toronto Center
Sat 09:03:59 PM 46.4833 -84.5167 302° West 410 472 36,000  Level Toronto Center
Sat 09:04:59 PM 46.5333 -84.6667 296° West 410 472 36,000  Level Toronto Center
Sat 09:05:59 PM 46.6000 -84.8333 300° West 420 483 36,000  Level Toronto Center
Sat 09:06:46 PM 46.6333 -84.8833 314° West 410 472 36,000  Level Winnipeg Center
Sat 09:07:46 PM 46.6833 -85.0333 296° West 420 483 36,000  Level Winnipeg Center
Sat 09:08:46 PM 46.7500 -85.1667 306° West 410 472 36,000  Level Winnipeg Center
Sat 09:09:46 PM 46.8000 -85.3333 294° West 410 472 36,000  Level Winnipeg Center
Sat 09:10:46 PM 46.8500 -85.4667 299° West 420 483 36,000  Level Winnipeg Center
Sat 09:11:46 PM 46.9167 -85.6167 303° West 420 483 36,000  Level Winnipeg Center
Sat 09:12:46 PM 46.9667 -85.7667 296° West 420 483 36,000  Level Winnipeg Center
Sat 09:13:46 PM 47.0167 -85.9167 296° West 420 483 36,000  Level Winnipeg Center
Sat 09:14:46 PM 47.0833 -86.0833 300° West 420 483 36,000  Level Winnipeg Center
Sat 09:15:46 PM 47.1333 -86.2167 299° West 410 472 36,000  Level Winnipeg Center
Sat 09:16:46 PM 47.1833 -86.3500 299° West 410 472 36,000 150 Level Winnipeg Center
Sat 09:17:46 PM 47.2333 -86.5167 294° West 410 472 36,300 600 Climbing Winnipeg Center
Sat 09:18:46 PM 47.2833 -86.6500 299° West 400 460 37,200 750 Climbing Winnipeg Center
Sat 09:19:46 PM 47.3500 -86.7833 306° West 410 472 37,800 400 Climbing Winnipeg Center
Sat 09:20:46 PM 47.4000 -86.9500 294° West 420 483 38,000 100 Climbing Winnipeg Center
Sat 09:21:46 PM 47.4667 -87.1167 301° West 430 495 38,000  Level Winnipeg Center
Sat 09:22:46 PM 47.5167 -87.2500 299° West 430 495 38,000  Level Winnipeg Center
Sat 09:23:46 PM 47.5500 -87.4167 287° West 430 495 38,000  Level Winnipeg Center
Sat 09:24:46 PM 47.6167 -87.5833 301° West 420 483 38,000  Level Winnipeg Center
Sat 09:25:46 PM 47.6667 -87.7500 294° West 420 483 38,000  Level Winnipeg Center
Sat 09:26:46 PM 47.7333 -87.8833 307° West 430 495 38,000  Level Winnipeg Center
Sat 09:27:46 PM 47.7833 -88.0500 294° West 430 495 38,000  Level Winnipeg Center
Sat 09:28:46 PM 47.8500 -88.2167 301° West 430 495 38,000  Level Winnipeg Center
Sat 09:29:46 PM 47.8833 -88.3500 290° West 420 483 38,000  Level Winnipeg Center
Sat 09:30:46 PM 47.9333 -88.5333 292° West 420 483 38,000  Level Winnipeg Center
Sat 09:31:46 PM 48.0000 -88.6667 307° West 420 483 38,000  Level Winnipeg Center
Sat 09:32:46 PM 48.0333 -88.8167 288° West 410 472 38,000  Level Winnipeg Center
Sat 09:33:46 PM 48.1000 -88.9667 304° West 410 472 38,000  Level Winnipeg Center
Sat 09:34:46 PM 48.1500 -89.1167 297° West 410 472 38,000  Level Winnipeg Center
Sat 09:35:46 PM 48.1833 -89.2833 287° West 410 472 38,000  Level Winnipeg Center
Sat 09:36:46 PM 48.2333 -89.4500 294° West 410 472 38,000  Level Winnipeg Center
Sat 09:37:46 PM 48.2833 -89.6000 297° West 410 472 38,000  Level Winnipeg Center
Sat 09:38:46 PM 48.3000 -89.7667 279° West 410 472 38,000  Level Winnipeg Center
Sat 09:39:46 PM 48.3500 -89.9500 292° West 410 472 38,000  Level Winnipeg Center
Sat 09:40:46 PM 48.3833 -90.0833 291° West 420 483 38,000  Level Winnipeg Center
Sat 09:41:46 PM 48.4167 -90.2667 285° West 420 483 38,000  Level Winnipeg Center
Sat 09:42:46 PM 48.4500 -90.4333 287° West 420 483 38,000  Level Winnipeg Center
Sat 09:43:46 PM 48.5000 -90.6000 294° West 420 483 38,000  Level Winnipeg Center
Sat 09:44:46 PM 48.5167 -90.7833 278° West 420 483 38,000  Level Winnipeg Center
Sat 09:45:46 PM 48.5667 -90.9500 294° West 430 495 38,000  Level Winnipeg Center
Sat 09:46:46 PM 48.5833 -91.1167 279° West 430 495 38,000  Level Winnipeg Center
Sat 09:47:46 PM 48.6333 -91.3000 292° West 430 495 38,000  Level Winnipeg Center
Sat 09:48:46 PM 48.6500 -91.4667 279° West 430 495 38,000  Level Winnipeg Center
Sat 09:49:46 PM 48.7000 -91.6500 293° West 420 483 38,000  Level Winnipeg Center
Sat 09:50:46 PM 48.7167 -91.8000 280° West 430 495 38,000  Level Winnipeg Center
Sat 09:51:46 PM 48.7667 -92.0000 291° West 420 483 38,000  Level Winnipeg Center
Sat 09:52:46 PM 48.7833 -92.1500 280° West 420 483 38,000  Level Winnipeg Center
Sat 09:53:46 PM 48.8333 -92.3167 295° West 420 483 38,000  Level Winnipeg Center
Sat 09:54:46 PM 48.8500 -92.5000 278° West 420 483 38,000  Level Winnipeg Center
Sat 09:55:46 PM 48.9000 -92.6333 300° West 410 472 38,000  Level Winnipeg Center
Sat 09:56:46 PM 48.9167 -92.8167 278° West 410 472 38,000  Level Winnipeg Center
Sat 09:57:46 PM 48.9500 -93.0000 286° West 410 472 38,000  Level Winnipeg Center
Sat 09:58:46 PM 48.9833 -93.1667 287° West 410 472 38,000  Level Winnipeg Center
Sat 09:59:46 PM 49.0167 -93.3167 289° West 410 472 38,000  Level Winnipeg Center
Sat 10:00:46 PM 49.0333 -93.5000 278° West 410 472 38,000  Level Winnipeg Center
Sat 10:01:46 PM 49.0667 -93.6667 287° West 420 483 38,000  Level Winnipeg Center
Sat 10:02:46 PM 49.1000 -93.8167 289° West 420 483 38,000  Level Winnipeg Center
Sat 10:03:46 PM 49.1167 -94.0000 278° West 410 472 38,000  Level Winnipeg Center
Sat 10:04:46 PM 49.1667 -94.1833 293° West 410 472 38,000  Level Winnipeg Center
Sat 10:05:46 PM 49.1833 -94.3500 279° West 410 472 38,000  Level Winnipeg Center
Sat 10:06:46 PM 49.2167 -94.5000 289° West 410 472 38,000  Level Winnipeg Center
Sat 10:07:46 PM 49.2333 -94.6833 278° West 410 472 38,000  Level Winnipeg Center
Sat 10:08:46 PM 49.2667 -94.8667 286° West 410 472 38,000  Level Winnipeg Center
Sat 10:14:35 PM 49.4490 -95.8890 284° West 420 483 38,000  Level FlightAware ADS-B (UIO / SEQM)
Sat 10:15:11 PM 49.4650 -95.9940 284° West 421 484 38,000  Level FlightAware ADS-B (UIO / SEQM)
Sat 10:15:41 PM 49.4790 -96.0810 284° West 421 484 38,000  Level FlightAware ADS-B (UIO / SEQM)
Sat 10:16:11 PM 49.4920 -96.1680 284° West 420 483 38,000  Level FlightAware ADS-B (UIO / SEQM)
Sat 10:16:47 PM 49.5070 -96.2730 284° West 422 486 38,000  Level FlightAware ADS-B (UIO / SEQM)
Sat 10:17:24 PM 49.5230 -96.3780 283° West 422 486 38,000  Level FlightAware ADS-B (UIO / SEQM)
Sat 10:18:00 PM 49.5380 -96.4810 283° West 422 486 38,000  Level FlightAware ADS-B (UIO / SEQM)
Sat 10:18:29 PM 49.5520 -96.5710 283° West 422 486 38,000  Level FlightAware ADS-B (UIO / SEQM)
Sat 10:19:05 PM 49.5670 -96.6750 283° West 422 486 38,000  Level FlightAware ADS-B (UIO / SEQM)
Sat 10:19:35 PM 49.5800 -96.7620 283° West 421 484 38,000  Level FlightAware ADS-B (UIO / SEQM)
Sat 10:20:11 PM 49.5950 -96.8670 283° West 423 487 38,000  Level FlightAware ADS-B (UIO / SEQM)
Sat 10:20:40 PM 49.6070 -96.9510 283° West 425 489 38,000  Level FlightAware ADS-B (UIO / SEQM)
Sat 10:21:11 PM 49.6200 -97.0440 283° West 426 490 38,000  Level FlightAware ADS-B (UIO / SEQM)
Sat 10:21:41 PM 49.6330 -97.1330 283° West 426 490 38,000  Level FlightAware ADS-B (UIO / SEQM)
Sat 10:22:17 PM 49.6470 -97.2380 283° West 425 489 38,000  Level FlightAware ADS-B (UIO / SEQM)
Sat 10:22:48 PM 49.6600 -97.3280 283° West 426 490 38,000  Level FlightAware ADS-B (UIO / SEQM)
Sat 10:23:16 PM 49.6720 -97.4110 283° West 425 489 38,000  Level FlightAware ADS-B (UIO / SEQM)
Sat 10:23:54 PM 49.6860 -97.5130 283° West 426 490 38,000  Level FlightAware ADS-B (UIO / SEQM)
Sat 10:24:29 PM 49.7010 -97.6250 283° West 426 490 38,000  Level FlightAware ADS-B (UIO / SEQM)
Sat 10:25:11 PM 49.7190 -97.7530 283° West 427 491 38,000  Level FlightAware ADS-B (UIO / SEQM)
Sat 10:25:46 PM 49.7167 -97.8500 283° West 420 483 38,000  Level Winnipeg Center
Sat 10:26:46 PM 49.7333 -98.0333 278° West 430 495 38,000  Level Winnipeg Center
Sat 10:27:46 PM 49.7500 -98.2167 278° West 430 495 38,000  Level Winnipeg Center
Sat 10:28:46 PM 49.7833 -98.3667 289° West 430 495 38,000  Level Winnipeg Center
Sat 10:29:46 PM 49.8000 -98.5667 277° West 430 495 38,000  Level Winnipeg Center
Sat 10:30:46 PM 49.8333 -98.7500 286° West 430 495 38,000  Level Winnipeg Center
Sat 10:31:46 PM 49.8667 -98.9333 286° West 430 495 38,000  Level Winnipeg Center
Sat 10:32:46 PM 49.8833 -99.1167 278° West 440 506 38,000  Level Winnipeg Center
Sat 10:33:46 PM 49.9000 -99.3000 278° West 440 506 38,000  Level Winnipeg Center
Sat 10:34:46 PM 49.9167 -99.4833 278° West 440 506 38,000  Level Winnipeg Center
Sat 10:35:46 PM 49.9500 -99.6667 286° West 440 506 38,000  Level Winnipeg Center
Sat 10:36:46 PM 49.9667 -99.8500 278° West 440 506 38,000  Level Winnipeg Center
Sat 10:37:46 PM 49.9833 -100.0667 277° West 440 506 38,000  Level Winnipeg Center
Sat 10:38:46 PM 49.9833 -100.2500 270° West 440 506 38,000  Level Winnipeg Center
Sat 10:39:46 PM 50.0000 -100.4333 278° West 440 506 38,000  Level Winnipeg Center
Sat 10:40:46 PM 50.0000 -100.6167 270° West 440 506 38,000  Level Winnipeg Center
Sat 10:41:46 PM 50.0167 -100.8167 277° West 440 506 38,000  Level Winnipeg Center
Sat 10:42:46 PM 50.0333 -101.0000 278° West 440 506 38,000  Level Winnipeg Center
Sat 10:43:46 PM 50.0167 -101.1833 262° West 440 506 38,000  Level Winnipeg Center
Sat 10:44:46 PM 50.0333 -101.4000 277° West 440 506 38,000  Level Winnipeg Center
Sat 10:45:46 PM 50.0333 -101.5833 270° West 440 506 38,000  Level Winnipeg Center
Sat 10:46:46 PM 50.0500 -101.7667 278° West 440 506 38,000  Level Winnipeg Center
Sat 10:47:46 PM 50.0500 -101.9500 270° West 440 506 38,000  Level Winnipeg Center
Sat 10:48:46 PM 50.0500 -102.1500 270° West 440 506 38,000  Level Winnipeg Center
Sat 10:49:46 PM 50.0500 -102.3333 270° West 440 506 38,000  Level Winnipeg Center
Sat 10:50:46 PM 50.0667 -102.5500 277° West 440 506 38,000  Level Winnipeg Center
Sat 10:51:46 PM 50.0667 -102.7333 270° West 440 506 38,000  Level Winnipeg Center
Sat 10:52:46 PM 50.0833 -102.9167 278° West 440 506 38,000  Level Winnipeg Center
Sat 10:53:46 PM 50.0667 -103.1000 262° West 440 506 38,000  Level Winnipeg Center
Sat 10:54:46 PM 50.0667 -103.3000 270° West 440 506 38,000  Level Winnipeg Center
Sat 10:55:46 PM 50.0833 -103.4833 278° West 450 518 38,000  Level Winnipeg Center
Sat 10:56:46 PM 50.0833 -103.7000 270° West 450 518 38,000  Level Winnipeg Center
Sat 10:57:46 PM 50.0833 -103.8833 270° West 450 518 38,000  Level Winnipeg Center
Sat 10:58:46 PM 50.1000 -104.1000 277° West 450 518 38,000  Level Winnipeg Center
Sat 10:59:46 PM 50.0833 -104.2667 261° West 450 518 38,000  Level Winnipeg Center
Sat 11:00:46 PM 50.0833 -104.4833 270° West 450 518 38,000  Level Winnipeg Center
Sat 11:01:46 PM 50.0833 -104.6667 270° West 450 518 38,000  Level Winnipeg Center
Sat 11:02:46 PM 50.1000 -104.8500 278° West 450 518 38,000  Level Winnipeg Center
Sat 11:03:46 PM 50.1000 -105.0667 270° West 450 518 38,000  Level Winnipeg Center
Sat 11:04:46 PM 50.0833 -105.2500 262° West 460 529 38,000  Level Winnipeg Center
Sat 11:05:46 PM 50.0833 -105.4500 270° West 460 529 38,000  Level Winnipeg Center
Sat 11:06:46 PM 50.0833 -105.6667 270° West 460 529 38,000  Level Winnipeg Center
Sat 11:07:46 PM 50.0833 -105.8500 270° West 460 529 38,000  Level Winnipeg Center
Sat 11:08:46 PM 50.0833 -106.0500 270° West 460 529 38,000  Level Winnipeg Center
Sat 11:09:46 PM 50.0833 -106.2667 270° West 460 529 38,000  Level Winnipeg Center
Sat 11:11:00 PM 50.0667 -106.4667 263° West 460 529 38,000  Level Edmonton Center
Sat 11:12:00 PM 50.0667 -106.6667 270° West 460 529 38,000  Level Edmonton Center
Sat 11:13:00 PM 50.0500 -106.8833 263° West 460 529 38,000  Level Edmonton Center
Sat 11:14:00 PM 50.0500 -107.0667 270° West 460 529 38,000  Level Edmonton Center
Sat 11:15:00 PM 50.0500 -107.2667 270° West 460 529 38,000  Level Edmonton Center
Sat 11:16:00 PM 50.0500 -107.4500 270° West 460 529 38,000  Level Edmonton Center
Sat 11:17:00 PM 50.0333 -107.6667 263° West 460 529 38,000  Level Edmonton Center
Sat 11:18:00 PM 50.0333 -107.8833 270° West 460 529 38,000  Level Edmonton Center
Sat 11:19:00 PM 50.0333 -108.0833 270° West 460 529 38,000  Level Edmonton Center
Sat 11:20:00 PM 50.0167 -108.3000 263° West 460 529 38,000  Level Edmonton Center
Sat 11:21:00 PM 50.0167 -108.4833 270° West 460 529 38,000  Level Edmonton Center
Sat 11:22:00 PM 50.0167 -108.6833 270° West 460 529 38,000  Level Edmonton Center
Sat 11:23:00 PM 50.0000 -108.8667 262° West 460 529 38,000  Level Edmonton Center
Sat 11:24:00 PM 50.0167 -109.0833 277° West 460 529 38,000  Level Edmonton Center
Sat 11:25:00 PM 50.0000 -109.2833 263° West 460 529 38,000  Level Edmonton Center
Sat 11:26:00 PM 50.0000 -109.4667 270° West 460 529 38,000  Level Edmonton Center
Sat 11:27:00 PM 49.9833 -109.6833 263° West 460 529 38,000  Level Edmonton Center
Sat 11:28:00 PM 49.9833 -109.9000 270° West 460 529 38,000  Level Edmonton Center
Sat 11:29:00 PM 49.9667 -110.1000 263° West 460 529 38,000  Level Edmonton Center
Sat 11:30:00 PM 49.9667 -110.2833 270° West 470 541 38,000  Level Edmonton Center
Sat 11:31:00 PM 49.9667 -110.5000 270° West 470 541 38,000  Level Edmonton Center
Sat 11:32:00 PM 49.9667 -110.7000 270° West 460 529 38,000  Level Edmonton Center
Sat 11:33:00 PM 49.9667 -110.8833 270° West 470 541 38,000  Level Edmonton Center
Sat 11:34:00 PM 49.9667 -111.1000 270° West 460 529 38,000  Level Edmonton Center
Sat 11:35:00 PM 49.9667 -111.3167 270° West 460 529 38,000  Level Edmonton Center
Sat 11:36:00 PM 49.9667 -111.4833 270° West 470 541 38,000  Level Edmonton Center
Sat 11:37:00 PM 49.9667 -111.7000 270° West 470 541 38,000  Level Edmonton Center
Sat 11:38:00 PM 49.9667 -111.9167 270° West 470 541 38,000  Level Edmonton Center
Sat 11:39:00 PM 49.9667 -112.1167 270° West 470 541 38,000  Level Edmonton Center
Sat 11:40:00 PM 49.9667 -112.3333 270° West 470 541 38,000  Level Edmonton Center
Sat 11:41:00 PM 49.9667 -112.5500 270° West 470 541 38,000  Level Edmonton Center
Sat 11:42:00 PM 49.9667 -112.7333 270° West 470 541 38,000  Level Edmonton Center
Sat 11:43:00 PM 49.9667 -112.9333 270° West 470 541 38,000  Level Edmonton Center
Sat 11:44:00 PM 49.9500 -113.1167 262° West 470 541 38,000  Level Edmonton Center
Sat 11:45:00 PM 49.9500 -113.3500 270° West 460 529 38,000  Level Edmonton Center
Sat 11:46:00 PM 49.9500 -113.5333 270° West 470 541 38,000  Level Edmonton Center
Sat 11:47:00 PM 49.9500 -113.7500 270° West 470 541 38,000  Level Edmonton Center
Sat 11:48:00 PM 49.9333 -113.9667 263° West 470 541 38,000  Level Edmonton Center
Sat 11:49:00 PM 49.9333 -114.1500 270° West 470 541 38,000  Level Edmonton Center
Sat 11:50:00 PM 49.9333 -114.3500 270° West 470 541 38,000  Level Edmonton Center
Sat 11:51:00 PM 49.9333 -114.5667 270° West 470 541 38,000  Level Edmonton Center
Sat 11:52:00 PM 49.9167 -114.7667 263° West 480 552 38,000  Level Edmonton Center
Sat 11:53:00 PM 49.9167 -114.9833 270° West 470 541 38,000  Level Edmonton Center
Sat 11:54:00 PM 49.9167 -115.1833 270° West 480 552 38,000  Level Edmonton Center
Sat 11:55:00 PM 49.9167 -115.4000 270° West 480 552 38,000  Level Edmonton Center
Sat 11:56:00 PM 49.8833 -115.6000 256° West 480 552 38,000  Level Edmonton Center
Sat 11:57:00 PM 49.8833 -115.8167 270° West 480 552 38,000  Level Edmonton Center
Sat 11:58:00 PM 49.8833 -116.0000 270° West 470 541 38,000  Level Edmonton Center
Sat 11:59:00 PM 49.8833 -116.2167 270° West 470 541 38,000  Level Edmonton Center
Sun 12:00:00 AM 49.8667 -116.4167 263° West 470 541 38,000  Level Edmonton Center
Sun 12:01:00 AM 49.8500 -116.6333 263° West 470 541 38,000  Level Edmonton Center
Sun 12:02:00 AM 49.8500 -116.8333 270° West 470 541 38,000  Level Edmonton Center
Sun 12:03:00 AM 49.8333 -117.0500 263° West 470 541 38,000  Level Edmonton Center
Sun 12:04:00 AM 49.8333 -117.2333 270° West 470 541 38,000  Level Edmonton Center
Sun 12:05:00 AM 49.8167 -117.4333 263° West 470 541 38,000  Level Edmonton Center
Sun 12:06:00 AM 49.8000 -117.6500 263° West 480 552 38,000  Level Edmonton Center
Sun 12:07:00 AM 49.8000 -117.8500 270° West 480 552 38,000  Level Edmonton Center
Sun 12:08:00 AM 49.7833 -118.0667 263° West 470 541 38,000  Level Edmonton Center
Sun 12:09:00 AM 49.7833 -118.2667 270° West 470 541 38,000  Level Edmonton Center
Sun 12:10:00 AM 49.7500 -118.4667 256° West 480 552 38,000  Level Edmonton Center
Sun 12:15:00 AM 49.7294 -119.4660 264° West 475 547 38,000  Level FlightAware ADS-B
Sun 12:17:52 AM 49.6880 -120.0446 264° West 475 547 38,000  Level FlightAware ADS-B (CYVR)
Sun 12:18:24 AM 49.6802 -120.1518 263° West 472 543 38,000 -265 Level FlightAware ADS-B (CYVR)
Sun 12:19:00 AM 49.6711 -120.2725 264° West 466 536 37,700 -818 Descending FlightAware ADS-B (CYVR)
Sun 12:19:30 AM 49.6650 -120.3521 263° West 466 536 37,100 -1,333 Descending FlightAware ADS-B (CYVR)
Sun 12:20:03 AM 49.6552 -120.4784 263° West 471 542 36,300 -1,364 Descending FlightAware ADS-B (CYVR)
Sun 12:20:36 AM 49.6465 -120.5891 263° West 473 544 35,600 -1,014 Descending FlightAware ADS-B (CYVR)
Sun 12:21:14 AM 49.6366 -120.7134 263° West 468 539 35,100 -1,077 Descending FlightAware ADS-B (CYVR)
Sun 12:21:54 AM 49.6259 -120.8468 263° West 464 534 34,200 -1,714 Descending FlightAware ADS-B (CYVR)
Sun 12:22:24 AM 49.6179 -120.9447 263° West 457 526 33,100 -2,200 Descending FlightAware ADS-B (CYVR)
Sun 12:22:54 AM 49.6103 -121.0379 263° West 451 519 32,000 -2,200 Descending FlightAware ADS-B (CYVR)
Sun 12:23:24 AM 49.6023 -121.1332 263° West 446 513 30,900 -2,149 Descending FlightAware ADS-B (CYVR)
Sun 12:24:01 AM 49.5927 -121.2487 263° West 437 503 29,600 -2,267 Descending FlightAware ADS-B
Sun 12:24:09 AM 49.5905 -121.2737 263° West 434 499 29,200 -2,211 Descending FlightAware ADS-B
Sun 12:24:39 AM 49.5828 -121.3625 262° West 426 490 28,200 -1,967 Descending FlightAware ADS-B
Sun 12:25:10 AM 49.5750 -121.4540 262° West 418 481 27,200 -2,000 Descending FlightAware ADS-B
Sun 12:25:54 AM 49.5638 -121.5835 262° West 405 466 25,700 -2,027 Descending FlightAware ADS-B (CYVR)
Sun 12:26:24 AM 49.5563 -121.6679 262° West 397 457 24,700 -2,000 Descending FlightAware ADS-B (CYVR)
Sun 12:26:54 AM 49.5482 -121.7606 262° West 388 447 23,700 -1,800 Descending FlightAware ADS-B
Sun 12:27:24 AM 49.5421 -121.8282 262° West 382 440 22,900 -1,869 Descending FlightAware ADS-B
Sun 12:27:55 AM 49.5343 -121.9142 262° West 375 432 21,800 -1,938 Descending FlightAware ADS-B (CYVR)
Sun 12:28:29 AM 49.5262 -122.0033 260° West 367 422 20,800 -1,811 Descending FlightAware ADS-B (CYVR)
Sun 12:28:48 AM 49.5172 -122.0512 249° West 360 414 20,200 -1,862 Descending FlightAware ADS-B (CYVR)
Sun 12:28:58 AM 49.5101 -122.0748 243° Southwest 357 411 19,900 -1,814 Descending FlightAware ADS-B (CYVR)
Sun 12:29:31 AM 49.4838 -122.1435 238° Southwest 355 409 18,900 -1,701 Descending FlightAware ADS-B
Sun 12:30:05 AM 49.4545 -122.2150 238° Southwest 354 407 18,000 -1,846 Descending FlightAware ADS-B
Sun 12:30:36 AM 49.4267 -122.2843 238° Southwest 359 413 16,900 -1,672 Descending FlightAware ADS-B (CYVR)
Sun 12:31:06 AM 49.4021 -122.3461 239° Southwest 358 412 16,300 -1,500 Descending FlightAware ADS-B
Sun 12:31:36 AM 49.3759 -122.4122 239° Southwest 349 402 15,400 -1,778 Descending FlightAware ADS-B
Sun 12:32:00 AM 49.3527 -122.4702 238° Southwest 344 396 14,700 -1,579 Descending FlightAware ADS-B
Sun 12:32:14 AM 49.3411 -122.4992 239° Southwest 335 386 14,400 -667 Descending FlightAware ADS-B
Sun 12:32:45 AM 49.3201 -122.5519 239° Southwest 317 365 14,200 -381 Descending FlightAware ADS-B
Sun 12:33:17 AM 49.2957 -122.6126 238° Southwest 305 351 14,000 -439 Descending FlightAware ADS-B
Sun 12:33:26 AM 49.2882 -122.6316 242° Southwest 302 348 13,900 -632 Descending FlightAware ADS-B
Sun 12:33:36 AM 49.2817 -122.6523 247° West 300 345 13,800 -857 Descending FlightAware ADS-B
Sun 12:33:54 AM 49.2750 -122.6819 255° West 300 345 13,500 -1,250 Descending FlightAware ADS-B (CYVR)
Sun 12:34:24 AM 49.2651 -122.7426 256° West 295 339 12,800 -1,300 Descending FlightAware ADS-B (CYVR)
Sun 12:34:54 AM 49.2552 -122.8048 256° West 290 334 12,200 -1,200 Descending FlightAware ADS-B
Sun 12:35:24 AM 49.2457 -122.8631 256° West 285 328 11,600 -1,149 Descending FlightAware ADS-B
Sun 12:35:41 AM 49.2415 -122.9043 268° West 282 325 11,300 -1,125 Descending FlightAware ADS-B
Sun 12:35:56 AM 49.2433 -122.9333 279° West 286 329 11,000 -1,277 Descending FlightAware ADS-B
Sun 12:36:28 AM 49.2501 -122.9895 281° West 289 333 10,300 -1,385 Descending FlightAware ADS-B
Sun 12:36:48 AM 49.2553 -123.0291 281° West 289 333 9,800 -1,459 Descending FlightAware ADS-B (CYVR)
Sun 12:37:05 AM 49.2599 -123.0646 281° West 289 333 9,400 -1,636 Descending FlightAware ADS-B
Sun 12:37:21 AM 49.2639 -123.0956 281° West 291 335 8,900 -2,000 Descending FlightAware ADS-B
Sun 12:37:41 AM 49.2689 -123.1360 281° West 294 338 8,200 -2,108 Descending FlightAware ADS-B
Sun 12:37:58 AM 49.2733 -123.1716 281° West 295 339 7,600 -2,118 Descending FlightAware ADS-B
Sun 12:38:15 AM 49.2777 -123.2064 281° West 295 339 7,000 -2,000 Descending FlightAware ADS-B
Sun 12:38:34 AM 49.2821 -123.2412 281° West 294 338 6,400 -2,000 Descending FlightAware ADS-B
Sun 12:38:42 AM 49.2833 -123.2515 280° West 294 338 6,100 -1,680 Descending FlightAware ADS-B
Sun 12:38:59 AM 49.2885 -123.2947 281° West 292 336 5,700 -1,667 Descending FlightAware ADS-B
Sun 12:39:18 AM 49.2935 -123.3358 281° West 289 333 5,100 -1,941 Descending FlightAware ADS-B
Sun 12:39:33 AM 49.2973 -123.3663 281° West 288 331 4,600 -1,231 Descending FlightAware ADS-B
Sun 12:39:57 AM 49.3017 -123.4112 270° West 268 308 4,300 -800 Descending FlightAware ADS-B (CYVR)
Sun 12:40:03 AM 49.3010 -123.4222 259° West 258 297 4,200 -800 Descending FlightAware ADS-B
Sun 12:40:12 AM 49.2977 -123.4369 243° Southwest 242 278 4,100 -857 Descending FlightAware ADS-B
Sun 12:40:17 AM 49.2948 -123.4440 233° Southwest 235 270 4,000 -1,200 Descending FlightAware ADS-B
Sun 12:40:22 AM 49.2908 -123.4508 223° Southwest 228 262 3,900 -600 Descending FlightAware ADS-B
Sun 12:40:27 AM 49.2883 -123.4537 217° Southwest 223 257 3,900 -600 Level FlightAware ADS-B
Sun 12:40:32 AM 49.2819 -123.4589 202° Southwest 213 245 3,800 -1,200 Descending FlightAware ADS-B
Sun 12:40:37 AM 49.2773 -123.4609 193° South 208 239 3,700 -857 Descending FlightAware ADS-B
Sun 12:40:53 AM 49.2646 -123.4635 184° South 197 227 3,500 -571 Descending FlightAware ADS-B
Sun 12:40:58 AM 49.2578 -123.4633 173° South 189 217 3,500 -462 Level FlightAware ADS-B
Sun 12:41:06 AM 49.2518 -123.4606 155° Southeast 182 209 3,400 -333 Descending FlightAware ADS-B (CYVR)
Sun 12:41:16 AM 49.2457 -123.4537 136° Southeast 174 200 3,400 -400 Level FlightAware ADS-B
Sun 12:41:21 AM 49.2439 -123.4508 131° Southeast 170 196 3,300 -900 Descending FlightAware ADS-B
Sun 12:41:36 AM 49.2352 -123.4340 128° Southeast 163 188 3,100 -750 Descending FlightAware ADS-B (CYVR)
Sun 12:41:45 AM 49.2320 -123.4270 120° Southeast 161 185 3,000 -429 Descending FlightAware ADS-B
Sun 12:41:50 AM 49.2304 -123.4214 110° East 163 188 3,000 -600 Level FlightAware ADS-B
Sun 12:41:55 AM 49.2293 -123.4152 104° East 163 188 2,900 -600 Descending FlightAware ADS-B
Sun 12:42:10 AM 49.2272 -123.3987 99° East 161 185 2,800 -387 Descending FlightAware ADS-B
Sun 12:42:26 AM 49.2253 -123.3805 99° East 157 181 2,700 -545 Descending FlightAware ADS-B (CYVR)
Sun 12:42:43 AM 49.2234 -123.3620 100° East 159 183 2,500 -938 Descending FlightAware ADS-B
Sun 12:42:58 AM 49.2215 -123.3452 100° East 159 183 2,200 -968 Descending FlightAware ADS-B
Sun 12:43:14 AM 49.2197 -123.3296 100° East 152 175 2,000 -774 Descending FlightAware ADS-B
Sun 12:43:29 AM 49.2179 -123.3129 100° East 150 173 1,800 -750 Descending FlightAware ADS-B
Sun 12:43:46 AM 49.2163 -123.2991 100° East 144 166 1,600 -833 Descending FlightAware ADS-B
Sun 12:44:05 AM 49.2139 -123.2779 100° East 132 152 1,300 -686 Descending FlightAware ADS-B
Sun 12:44:21 AM 49.2123 -123.2636 100° East 131 151 1,200 -581 Descending FlightAware ADS-B
Sun 12:44:36 AM 49.2107 -123.2495 100° East 128 147 1,000 -882 Descending FlightAware ADS-B
Sun 12:44:55 AM 49.2086 -123.2312 100° East 133 153 700 -811 Descending FlightAware ADS-B (CYVR)
Sun 12:45:13 AM 49.2068 -123.2151 100° East 128 147 500 -632 Descending FlightAware ADS-B
Sun 12:45:33 AM 49.2047 -123.1972 100° East 132 152 300 -600 Descending FlightAware ADS-B

Login

Don't have an account? Register now (free) for customized features, flight alerts, and more!